createdAt,value
2023-02-07T00:16:44.000Z,-0.4
2023-02-07T00:46:49.000Z,-1.0
2023-02-07T01:16:53.000Z,-1.6
2023-02-07T01:46:57.000Z,-2.0
2023-02-07T02:17:02.000Z,-2.3
2023-02-07T02:47:07.000Z,-2.6
2023-02-07T03:17:10.000Z,-2.6
2023-02-07T03:47:15.000Z,-2.9
2023-02-07T04:17:24.000Z,-3.3
2023-02-07T04:47:27.000Z,-4.0
2023-02-07T05:17:31.000Z,-4.5
2023-02-07T05:47:37.000Z,-5.2
2023-02-07T06:17:43.000Z,-5.7
2023-02-07T06:47:49.000Z,-5.9
2023-02-07T07:17:54.000Z,-6.1
2023-02-07T07:48:00.000Z,-5.9
2023-02-07T08:18:10.000Z,-5.2
2023-02-07T08:48:12.000Z,-4.4
2023-02-07T09:18:17.000Z,-3.5
2023-02-07T09:48:20.000Z,-2.2
2023-02-07T10:18:27.000Z,-1.5
2023-02-07T10:48:33.000Z,-0.5
2023-02-07T11:18:42.000Z,0.4
2023-02-07T11:48:46.000Z,1.6
2023-02-07T12:18:48.000Z,1.9
2023-02-07T12:48:54.000Z,2.2
2023-02-07T13:19:00.000Z,2.8
2023-02-07T13:49:07.000Z,3.9
2023-02-07T14:19:11.000Z,2.3
2023-02-07T14:49:17.000Z,1.1
2023-02-07T15:19:22.000Z,0.0
2023-02-07T15:49:26.000Z,-0.3
2023-02-07T16:19:30.000Z,-0.8
2023-02-07T16:49:38.000Z,-1.3
2023-02-07T17:19:42.000Z,-1.9
2023-02-07T17:49:49.000Z,-2.9
2023-02-07T18:19:59.000Z,-3.5
2023-02-07T18:50:09.000Z,-4.2
2023-02-07T19:20:16.000Z,-4.7
2023-02-07T19:50:26.000Z,-5.1
2023-02-07T20:20:32.000Z,-5.3
2023-02-07T20:50:38.000Z,-5.9
2023-02-07T21:20:43.000Z,-6.3
2023-02-07T21:50:49.000Z,-6.5
2023-02-07T22:20:58.000Z,-6.8
2023-02-07T22:21:08.000Z,-6.8
2023-02-07T22:21:19.000Z,-6.8
2023-02-07T22:21:32.000Z,-6.8
2023-02-07T22:21:43.000Z,-6.8
2023-02-07T22:56:21.000Z,-7.0
2023-02-07T22:57:55.000Z,-7.0
2023-02-07T22:59:29.000Z,-7.0
2023-02-07T23:01:13.000Z,-7.0
2023-02-07T23:02:48.000Z,-7.1
2023-02-07T23:41:18.000Z,-7.6
